Dallas Love Field
KDAL : now visible

Airfield :











YOU CAN JOIN US ON...

 
LOGIN :

Register | Disclaimer

   EN    FR    IT 

 









Legend :    VFR   Marginal VFR   IFR   Intensive IFR   Very Intensive IFR
Visi :
Ceiling :
>= 8 km
>= 3000ft
5 to 8 km
1000 to 3000 ft
1500m to 5 km
500 to 1000 ft
800 to 1500m
200 to 500 ft
< 800m
< 200 ft
Symbols :   Thunderstorms  Fog  Heavy snow  Heavy precipitations  Wind > 20 kt






- Airport Elevation : 487 ft
- IATA code : DAL


KDAL - Dallas Love Field

CURRENT METAR :
  • 250653Z 18007KT 10SM FEW014 BKN050 OVC250 21/17 A2980 RMK AO2 SLP085 T02060172 $

EXPIRED METARs :
  • 250553Z 21006KT 10SM SCT014 BKN060 OVC250 21/17 A2982 RMK AO2 SLP091 T02060172 10228 20206 403060206 51033 $
  • 250533Z 17009KT 10SM BKN014 OVC055 21/17 A2981 RMK AO2 T02060172 $
  • 250453Z 17008G16KT 10SM OVC016 21/17 A2981 RMK AO2 SLP086 T02060172 $

TAF KDAL
Valid from the 25 at 06:00 until the 26 at 06:00 UTC


250617Z 2506/2606 19009KT P6SM SCT014 BKN060
TEMPO 2507/2509 BKN012
FM250900 16007KT P6SM VCSH OVC015
FM251400 13006KT P6SM VCTS BKN025CB
FM251900 11008KT P6SM VCSH BKN050
FM252300 02007KT P6SM BKN040
KZFW FIR / North America



MET'MAP, your aeronautical weather chart ! - Copyright ORBIFLY December 2007 - Disclaimer

ORBIFLY MET'MAP TEAM :

Programming & Development : Alexandra Zaïnal
Concept & original design : Baudouin d'Aumeries
Assistance for programming : Marc-Olivier Méhu
Technical & hardware support : Manuel Goepfert

Contact : metmap@orbifly.com




SOURCES & CREDITS :

   NOAA       Earth
Advisory